Time;durP1;ratioP1;P1;durP2;ratioP2;P2;SDS_P1;SDS_P2;PMS_P1;PMS_P2;Temp;Humidity;BMP_temperature;BMP_pressure;BME280_temperature;BME280_humidity;BME280_pressure;Samples;Min_cycle;Max_cycle;Signal;HPM_P1;HPM_P2
2021/04/23 00:00:25;;;;;;;1999.90;999.90;;;16.60;93.10;;;;;;5030867;28;20628;-45
2021/04/23 00:02:54;;;;;;;1999.90;999.90;;;16.60;93.10;;;;;;5030950;28;20161;-45
2021/04/23 00:05:22;;;;;;;1999.90;999.90;;;16.50;93.30;;;;;;5031027;28;20531;-44
2021/04/23 00:07:49;;;;;;;1999.90;999.90;;;16.60;93.20;;;;;;5030892;28;20170;-46
2021/04/23 00:10:18;;;;;;;1999.90;999.90;;;16.60;93.40;;;;;;5030694;28;20181;-43
2021/04/23 00:12:45;;;;;;;1999.90;999.90;;;16.40;93.80;;;;;;5030775;28;20170;-46
2021/04/23 00:15:15;;;;;;;1999.90;999.90;;;16.40;93.70;;;;;;5030663;28;20170;-47
2021/04/23 00:17:42;;;;;;;1999.90;999.90;;;16.40;93.80;;;;;;5030666;28;20166;-41
2021/04/23 00:20:30;;;;;;;1999.90;999.90;;;16.40;93.90;;;;;;5030397;28;20229;-41
2021/04/23 00:23:06;;;;;;;1999.90;999.90;;;16.30;94.00;;;;;;5030506;28;20683;-43
2021/04/23 00:25:33;;;;;;;1999.90;999.90;;;16.30;94.00;;;;;;5030484;28;20165;-43
2021/04/23 00:28:03;;;;;;;1999.90;999.90;;;16.20;94.20;;;;;;5030539;28;20206;-44
2021/04/23 00:30:35;;;;;;;1999.90;999.90;;;16.20;94.20;;;;;;5030334;28;20162;-43
2021/04/23 00:33:03;;;;;;;1999.90;999.90;;;16.20;94.40;;;;;;5030484;28;20689;-46
2021/04/23 00:35:32;;;;;;;1999.90;999.90;;;16.10;94.60;;;;;;5030321;28;20323;-44
2021/04/23 00:38:01;;;;;;;1999.90;999.90;;;16.10;94.80;;;;;;5029891;28;20173;-40
2021/04/23 00:40:35;;;;;;;1999.90;999.90;;;16.10;95.00;;;;;;5030267;28;20227;-42
2021/04/23 00:43:03;;;;;;;1999.90;999.90;;;16.10;94.90;;;;;;5030269;28;20249;-43
2021/04/23 00:45:31;;;;;;;1999.90;999.90;;;16.00;95.00;;;;;;5030168;28;20634;-42
2021/04/23 00:48:00;;;;;;;1999.90;999.90;;;16.10;95.20;;;;;;5030162;28;20170;-42
2021/04/23 00:51:07;;;;;;;1999.90;999.90;;;16.10;94.90;;;;;;5030203;28;20580;-45
2021/04/23 00:53:37;;;;;;;1999.90;999.90;;;16.00;94.90;;;;;;5041344;28;20524;-40
2021/04/23 00:56:07;;;;;;;1999.90;999.90;;;16.00;95.00;;;;;;5030122;28;20162;-44
2021/04/23 00:58:36;;;;;;;1999.90;999.90;;;15.90;94.90;;;;;;5030331;28;20567;-44
2021/04/23 01:01:12;;;;;;;1999.90;999.90;;;15.90;95.40;;;;;;5029924;28;20581;-45
2021/04/23 01:03:40;;;;;;;1999.90;999.90;;;15.70;95.50;;;;;;5029919;28;20194;-40
2021/04/23 01:06:14;;;;;;;1999.90;999.90;;;15.70;95.80;;;;;;5030002;28;20250;-45
2021/04/23 01:08:42;;;;;;;1999.90;999.90;;;15.70;95.90;;;;;;5030039;28;20163;-41
2021/04/23 01:11:10;;;;;;;1999.90;999.90;;;15.70;95.80;;;;;;5029865;28;20187;-42
2021/04/23 01:13:37;;;;;;;1999.90;999.90;;;15.70;95.90;;;;;;5029898;28;20177;-40
2021/04/23 01:16:09;;;;;;;1999.90;999.90;;;15.70;95.90;;;;;;5029789;28;20170;-44
2021/04/23 01:18:38;;;;;;;1999.90;999.90;;;15.60;96.00;;;;;;5029918;28;20194;-46
2021/04/23 01:21:10;;;;;;;1999.90;999.90;;;15.60;96.10;;;;;;5029515;28;20209;-47
2021/04/23 01:23:38;;;;;;;1999.90;999.90;;;15.60;96.20;;;;;;5029717;28;20214;-44
2021/04/23 01:26:07;;;;;;;1999.90;999.90;;;15.50;96.30;;;;;;5029757;28;20260;-45
2021/04/23 01:28:34;;;;;;;1999.90;999.90;;;15.50;96.20;;;;;;5029683;28;20170;-45
2021/04/23 01:31:04;;;;;;;1999.90;999.90;;;15.50;96.40;;;;;;5029747;28;20185;-40
2021/04/23 01:33:31;;;;;;;1999.90;999.90;;;15.40;96.50;;;;;;5029595;28;20181;-45
2021/04/23 01:35:58;;;;;;;1999.90;999.90;;;15.40;96.70;;;;;;5029721;28;20170;-42
2021/04/23 01:38:25;;;;;;;1999.90;999.90;;;15.40;96.70;;;;;;5029536;28;20191;-45
2021/04/23 01:40:52;;;;;;;1999.90;999.90;;;15.40;96.70;;;;;;5029545;28;20188;-45
2021/04/23 01:43:20;;;;;;;1999.90;999.90;;;15.40;96.40;;;;;;5029447;28;20626;-43
2021/04/23 01:45:47;;;;;;;1999.90;999.90;;;15.30;96.50;;;;;;5029444;28;20268;-42
2021/04/23 01:48:16;;;;;;;1999.90;999.90;;;15.30;96.50;;;;;;5030078;28;20584;-44
2021/04/23 01:50:44;;;;;;;1999.90;999.90;;;15.30;96.60;;;;;;5032866;28;20265;-40
2021/04/23 01:53:12;;;;;;;1999.90;999.90;;;15.20;96.70;;;;;;5032841;28;20170;-45
2021/04/23 01:55:39;;;;;;;1999.90;999.90;;;15.10;97.20;;;;;;5032844;28;20170;-43
2021/04/23 01:58:07;;;;;;;1999.90;999.90;;;15.00;97.50;;;;;;5032815;28;20260;-42
2021/04/23 02:00:54;;;;;;;1999.90;999.90;;;15.00;97.60;;;;;;5032754;28;20174;-41
2021/04/23 02:03:22;;;;;;;1999.90;999.90;;;15.10;97.30;;;;;;5032666;28;20198;-45
2021/04/23 02:05:53;;;;;;;1999.90;999.90;;;15.20;97.30;;;;;;5032665;28;20192;-43
2021/04/23 02:08:21;;;;;;;1999.90;999.90;;;15.20;97.10;;;;;;5033031;28;20177;-41
2021/04/23 02:10:58;;;;;;;1999.90;999.90;;;15.20;97.00;;;;;;5032620;28;20172;-41
2021/04/23 02:13:27;;;;;;;1999.90;999.90;;;15.30;96.80;;;;;;5032614;28;20201;-45
2021/04/23 02:15:54;;;;;;;1999.90;999.90;;;15.30;96.90;;;;;;5032518;28;20173;-43
2021/04/23 02:18:23;;;;;;;1999.90;999.90;;;15.20;96.90;;;;;;5032430;28;20174;-41
2021/04/23 02:20:50;;;;;;;1999.90;999.90;;;15.20;96.80;;;;;;5032251;28;20737;-43
2021/04/23 02:23:19;;;;;;;1999.90;999.90;;;15.10;96.70;;;;;;5032227;28;20684;-44
2021/04/23 02:25:48;;;;;;;1999.90;999.90;;;15.00;96.60;;;;;;5032459;28;20193;-43
2021/04/23 02:28:18;;;;;;;1999.90;999.90;;;14.80;96.90;;;;;;5032231;28;20648;-39
2021/04/23 02:30:56;;;;;;;1999.90;999.90;;;14.60;97.30;;;;;;5032586;28;20648;-44
2021/04/23 02:33:23;;;;;;;1999.90;999.90;;;14.50;97.60;;;;;;5032238;28;20169;-44
2021/04/23 02:35:53;;;;;;;1999.90;999.90;;;14.40;98.00;;;;;;5032255;28;20642;-44
2021/04/23 02:38:20;;;;;;;1999.90;999.90;;;14.30;98.10;;;;;;5032130;28;20170;-40
2021/04/23 02:40:48;;;;;;;1999.90;999.90;;;14.20;98.50;;;;;;5032192;28;20549;-42
2021/04/23 02:43:21;;;;;;;1999.90;999.90;;;14.20;98.70;;;;;;5032052;28;20679;-42
2021/04/23 02:45:50;;;;;;;1999.90;999.90;;;14.20;98.70;;;;;;5032031;28;20176;-42
2021/04/23 02:48:20;;;;;;;1999.90;999.90;;;14.20;98.70;;;;;;5032028;28;20579;-42
2021/04/23 02:50:51;;;;;;;1999.90;999.90;;;14.20;98.40;;;;;;5031906;28;20174;-43
2021/04/23 02:53:18;;;;;;;1999.90;999.90;;;14.20;98.60;;;;;;5032016;28;20158;-42
2021/04/23 02:55:45;;;;;;;1999.90;999.90;;;14.20;98.10;;;;;;5031890;28;20176;-42
2021/04/23 02:58:18;;;;;;;1999.90;999.90;;;14.20;98.40;;;;;;5031858;28;20170;-42
2021/04/23 03:00:50;;;;;;;1999.90;999.90;;;14.10;98.20;;;;;;5031643;28;20166;-41
2021/04/23 03:03:18;;;;;;;1999.90;999.90;;;14.20;98.20;;;;;;5031814;28;20265;-41
2021/04/23 03:05:47;;;;;;;1999.90;999.90;;;14.10;98.50;;;;;;5031781;28;20266;-42
2021/04/23 03:08:14;;;;;;;1999.90;999.90;;;14.10;98.70;;;;;;5031731;28;20170;-39
2021/04/23 03:10:47;;;;;;;1999.90;999.90;;;14.10;98.80;;;;;;5031701;28;20236;-39
2021/04/23 03:13:18;;;;;;;1999.90;999.90;;;14.00;98.80;;;;;;5031661;28;20214;-42
2021/04/23 03:15:45;;;;;;;1999.90;999.90;;;13.90;98.60;;;;;;5031940;28;20589;-42
2021/04/23 03:18:17;;;;;;;1999.90;999.90;;;13.80;98.80;;;;;;5031481;28;20162;-39
2021/04/23 03:20:44;;;;;;;1999.90;999.90;;;13.60;99.30;;;;;;5031344;28;20228;-39
2021/04/23 03:23:11;;;;;;;1999.90;999.90;;;13.60;99.90;;;;;;5031338;28;20206;-39
2021/04/23 03:25:40;;;;;;;1999.90;999.90;;;13.50;99.90;;;;;;5031585;28;20234;-39
2021/04/23 03:28:08;;;;;;;1999.90;999.90;;;13.50;99.90;;;;;;5031514;28;20197;-39
2021/04/23 03:30:38;;;;;;;1999.90;999.90;;;13.70;99.90;;;;;;5031516;28;20170;-40
2021/04/23 03:33:07;;;;;;;1999.90;999.90;;;13.80;99.90;;;;;;5031559;28;20253;-42
2021/04/23 03:35:35;;;;;;;1999.90;999.90;;;13.90;99.90;;;;;;5031489;28;20174;-44
2021/04/23 03:38:03;;;;;;;1999.90;999.90;;;14.00;99.90;;;;;;5031266;28;20185;-39
2021/04/23 03:40:32;;;;;;;1999.90;999.90;;;14.20;99.90;;;;;;5031583;28;20267;-43
2021/04/23 03:43:00;;;;;;;1999.90;999.90;;;14.20;99.90;;;;;;5031137;28;20173;-42
2021/04/23 03:45:27;;;;;;;1999.90;999.90;;;14.20;99.90;;;;;;5031103;28;20652;-40
2021/04/23 03:47:54;;;;;;;1999.90;999.90;;;14.30;99.90;;;;;;5031175;28;20174;-43
2021/04/23 03:50:24;;;;;;;1999.90;999.90;;;14.30;99.90;;;;;;5031132;28;20269;-42
2021/04/23 03:52:52;;;;;;;1999.90;999.90;;;14.40;99.90;;;;;;5031061;28;20179;-44
2021/04/23 03:55:24;;;;;;;1999.90;999.90;;;14.30;99.90;;;;;;5030845;28;20178;-41
2021/04/23 03:57:51;;;;;;;1999.90;999.90;;;14.40;99.90;;;;;;5030945;28;20226;-42
2021/04/23 04:00:28;;;;;;;1999.90;999.90;;;14.40;99.90;;;;;;5030899;28;20170;-42
2021/04/23 04:02:55;;;;;;;1999.90;999.90;;;14.30;99.90;;;;;;5030807;28;20166;-42
2021/04/23 04:05:22;;;;;;;1999.90;999.90;;;14.30;99.90;;;;;;5030864;28;20269;-41
2021/04/23 04:07:49;;;;;;;1999.90;999.90;;;14.30;99.90;;;;;;5030667;28;20541;-39
2021/04/23 04:10:18;;;;;;;1999.90;999.90;;;14.40;99.90;;;;;;5030705;28;20199;-41
2021/04/23 04:12:46;;;;;;;1999.90;999.90;;;14.40;99.90;;;;;;5029977;28;20690;-40
2021/04/23 04:15:14;;;;;;;1999.90;999.90;;;14.50;99.90;;;;;;5030547;28;20632;-42
2021/04/23 04:17:42;;;;;;;1999.90;999.90;;;14.50;99.90;;;;;;5030795;28;20564;-41
2021/04/23 04:20:12;;;;;;;1999.90;999.90;;;14.60;99.90;;;;;;5030458;28;20300;-42
2021/04/23 04:22:40;;;;;;;1999.90;999.90;;;14.60;99.90;;;;;;5030717;28;20173;-42
2021/04/23 04:25:11;;;;;;;1999.90;999.90;;;14.50;99.90;;;;;;5030509;28;20290;-40
2021/04/23 04:27:39;;;;;;;1999.90;999.90;;;14.50;99.90;;;;;;5030516;28;20169;-39
2021/04/23 04:30:07;;;;;;;1999.90;999.90;;;14.50;99.90;;;;;;5030490;28;20257;-42
2021/04/23 04:32:34;;;;;;;1999.90;999.90;;;14.50;99.90;;;;;;5030395;28;20223;-40
2021/04/23 04:35:01;;;;;;;1999.90;999.90;;;14.60;99.90;;;;;;5030381;28;20632;-40
2021/04/23 04:37:28;;;;;;;1999.90;999.90;;;14.60;99.90;;;;;;5030321;28;20216;-40
2021/04/23 04:39:55;;;;;;;1999.90;999.90;;;14.60;99.90;;;;;;5030373;28;20500;-43
2021/04/23 04:42:22;;;;;;;1999.90;999.90;;;14.50;99.90;;;;;;5030250;28;20634;-40
2021/04/23 04:44:49;;;;;;;1999.90;999.90;;;14.50;99.90;;;;;;5030084;28;20209;-40
2021/04/23 04:47:16;;;;;;;1999.90;999.90;;;14.50;99.90;;;;;;5030289;28;20173;-43
2021/04/23 04:49:43;;;;;;;1999.90;999.90;;;14.40;99.90;;;;;;5030196;28;20184;-44
2021/04/23 04:52:10;;;;;;;1999.90;999.90;;;14.40;99.90;;;;;;5030051;28;20173;-40
2021/04/23 04:54:37;;;;;;;1999.90;999.90;;;14.40;99.90;;;;;;5029880;28;20249;-42
2021/04/23 04:57:04;;;;;;;1999.90;999.90;;;14.40;99.90;;;;;;5029741;28;20174;-42
2021/04/23 04:59:31;;;;;;;1999.90;999.90;;;14.40;99.90;;;;;;5029749;28;20246;-44
2021/04/23 05:01:57;;;;;;;1999.90;999.90;;;14.40;99.90;;;;;;5029656;28;20639;-41
2021/04/23 05:04:24;;;;;;;1999.90;999.90;;;14.40;99.90;;;;;;5029719;28;20221;-42
2021/04/23 05:06:51;;;;;;;1999.90;999.90;;;14.40;99.90;;;;;;5029746;28;20533;-39
2021/04/23 05:09:18;;;;;;;1999.90;999.90;;;14.40;99.90;;;;;;5029697;28;20173;-40
2021/04/23 05:11:45;;;;;;;1999.90;999.90;;;14.40;99.90;;;;;;5029588;28;20170;-42
2021/04/23 05:14:12;;;;;;;1999.90;999.90;;;14.30;99.90;;;;;;5029113;28;20219;-44
2021/04/23 05:16:38;;;;;;;1999.90;999.90;;;14.30;99.90;;;;;;5029233;28;20185;-41
2021/04/23 05:19:05;;;;;;;1999.90;999.90;;;14.30;99.90;;;;;;5028993;28;20173;-40
2021/04/23 05:21:32;;;;;;;1999.90;999.90;;;14.30;99.90;;;;;;5028909;28;20340;-39
2021/04/23 05:23:59;;;;;;;1999.90;999.90;;;14.20;99.90;;;;;;5032107;28;20235;-43
2021/04/23 05:26:26;;;;;;;1999.90;999.90;;;14.20;99.90;;;;;;5032557;28;20203;-43
2021/04/23 05:28:53;;;;;;;1999.90;999.90;;;14.20;99.90;;;;;;5032620;28;20174;-42
2021/04/23 05:31:20;;;;;;;1999.90;999.90;;;14.20;99.90;;;;;;5032452;28;20182;-42
2021/04/23 05:33:47;;;;;;;1999.90;999.90;;;14.20;99.90;;;;;;5032447;28;20636;-42
2021/04/23 05:36:14;;;;;;;1999.90;999.90;;;14.20;99.90;;;;;;5032507;28;20184;-43
2021/04/23 05:38:41;;;;;;;1999.90;999.90;;;14.20;99.90;;;;;;5032079;28;20173;-45
2021/04/23 05:41:08;;;;;;;1999.90;999.90;;;14.20;99.90;;;;;;5032417;28;20655;-42
2021/04/23 05:43:34;;;;;;;1999.90;999.90;;;14.20;99.90;;;;;;5032600;28;20193;-41
2021/04/23 05:46:01;;;;;;;1999.90;999.90;;;14.30;99.90;;;;;;5032702;28;20170;-40
2021/04/23 05:48:28;;;;;;;1999.90;999.90;;;14.20;99.90;;;;;;5032594;28;20166;-40
2021/04/23 05:50:55;;;;;;;1999.90;999.90;;;14.20;99.90;;;;;;5032351;28;20177;-43
2021/04/23 05:53:22;;;;;;;1999.90;999.90;;;14.20;99.90;;;;;;5032427;28;20181;-40
2021/04/23 05:55:49;;;;;;;1999.90;999.90;;;14.10;99.90;;;;;;5032513;28;20170;-40
2021/04/23 05:58:16;;;;;;;1999.90;999.90;;;14.10;99.90;;;;;;5032428;28;20192;-40
2021/04/23 06:00:43;;;;;;;1999.90;999.90;;;14.10;99.90;;;;;;5031856;28;20166;-40
2021/04/23 06:03:11;;;;;;;1999.90;999.90;;;14.00;99.90;;;;;;5030090;28;20284;-48
2021/04/23 06:05:39;;;;;;;1999.90;999.90;;;14.20;99.90;;;;;;5031320;28;20231;-49
2021/04/23 06:08:09;;;;;;;1999.90;999.90;;;14.50;99.90;;;;;;5031809;28;20178;-51
2021/04/23 06:10:36;;;;;;;1999.90;999.90;;;14.70;99.90;;;;;;5034417;28;20192;-50
2021/04/23 06:13:03;;;;;;;1999.90;999.90;;;14.80;99.90;;;;;;5052080;28;20169;-46
2021/04/23 06:15:31;;;;;;;1999.90;999.90;;;15.00;99.90;;;;;;5051814;28;20166;-46
2021/04/23 06:17:58;;;;;;;1999.90;999.90;;;15.10;99.90;;;;;;5051903;28;20161;-46
2021/04/23 06:20:30;;;;;;;1999.90;999.90;;;15.20;99.90;;;;;;5051705;28;20205;-47
2021/04/23 06:22:59;;;;;;;1999.90;999.90;;;15.30;99.80;;;;;;5042432;28;20588;-51
2021/04/23 06:25:27;;;;;;;1999.90;999.90;;;15.30;99.70;;;;;;5032042;28;20189;-49
2021/04/23 06:27:55;;;;;;;1999.90;999.90;;;15.30;99.50;;;;;;5032022;28;20193;-50
2021/04/23 06:30:27;;;;;;;1999.90;999.90;;;15.20;99.60;;;;;;5031543;28;20189;-49
2021/04/23 06:32:55;;;;;;;1999.90;999.90;;;15.20;99.60;;;;;;5031975;28;20170;-45
2021/04/23 06:35:25;;;;;;;1999.90;999.90;;;15.20;99.70;;;;;;5031070;28;20201;-47
2021/04/23 06:37:52;;;;;;;1999.90;999.90;;;15.30;99.60;;;;;;5032182;28;20526;-42
2021/04/23 06:40:20;;;;;;;1999.90;999.90;;;15.40;99.10;;;;;;5031909;28;20177;-39
2021/04/23 06:42:46;;;;;;;1999.90;999.90;;;15.30;99.00;;;;;;5031389;28;20530;-48
2021/04/23 06:45:17;;;;;;;1999.90;999.90;;;15.20;98.90;;;;;;5030975;28;20206;-39
2021/04/23 06:47:45;;;;;;;1999.90;999.90;;;15.20;98.80;;;;;;5031463;28;20620;-40
2021/04/23 06:50:15;;;;;;;1999.90;999.90;;;15.20;99.00;;;;;;5031215;28;20178;-39
2021/04/23 06:52:43;;;;;;;1999.90;999.90;;;15.10;99.20;;;;;;5031133;28;20178;-41
2021/04/23 06:55:12;;;;;;;1999.90;999.90;;;15.10;99.20;;;;;;5031253;28;20628;-39
2021/04/23 06:57:39;;;;;;;1999.90;999.90;;;15.10;99.10;;;;;;5031203;28;20177;-52
2021/04/23 07:00:10;;;;;;;1999.90;999.90;;;15.20;98.90;;;;;;5031034;28;20185;-39
2021/04/23 07:02:37;;;;;;;1999.90;999.90;;;15.40;98.40;;;;;;5031079;28;20181;-44
2021/04/23 07:05:06;;;;;;;1999.90;999.90;;;15.50;98.10;;;;;;5029722;28;20206;-42
2021/04/23 07:07:33;;;;;;;1999.90;999.90;;;15.40;97.90;;;;;;5030191;28;20166;-39
2021/04/23 07:10:00;;;;;;;1999.90;999.90;;;15.20;98.30;;;;;;5031101;28;20238;-38
2021/04/23 07:12:27;;;;;;;1999.90;999.90;;;15.10;98.80;;;;;;5031279;28;20178;-40
2021/04/23 07:14:54;;;;;;;1999.90;999.90;;;14.90;99.70;;;;;;5031079;28;20182;-39
2021/04/23 07:17:20;;;;;;;1999.90;999.90;;;15.10;99.80;;;;;;5030838;28;20178;-42
2021/04/23 07:19:48;;;;;;;1999.90;999.90;;;15.10;99.40;;;;;;5030791;28;20260;-43
2021/04/23 07:22:18;;;;;;;1999.90;999.90;;;15.10;99.90;;;;;;5030113;28;20274;-42
2021/04/23 07:24:45;;;;;;;1999.90;999.90;;;15.30;99.60;;;;;;5030912;28;20202;-44
2021/04/23 07:27:12;;;;;;;1999.90;999.90;;;15.50;98.90;;;;;;5030752;28;20162;-44
2021/04/23 07:29:39;;;;;;;1999.90;999.90;;;15.40;98.70;;;;;;5030972;28;20174;-52
2021/04/23 07:32:06;;;;;;;1999.90;999.90;;;15.60;98.40;;;;;;5030933;28;20597;-42
2021/04/23 07:34:35;;;;;;;1999.90;999.90;;;15.80;97.90;;;;;;5030705;28;20174;-45
2021/04/23 07:37:02;;;;;;;1999.90;999.90;;;15.90;97.90;;;;;;5030610;28;20177;-42
2021/04/23 07:39:29;;;;;;;1999.90;999.90;;;15.90;97.80;;;;;;5030708;28;20234;-45
2021/04/23 07:41:57;;;;;;;1999.90;999.90;;;15.90;97.70;;;;;;5031020;28;20170;-41
2021/04/23 07:44:26;;;;;;;1999.90;999.90;;;15.80;97.90;;;;;;5030205;28;20209;-47
2021/04/23 07:46:54;;;;;;;1999.90;999.90;;;16.00;97.60;;;;;;5029633;28;20233;-40
2021/04/23 07:49:21;;;;;;;1999.90;999.90;;;15.90;97.20;;;;;;5030625;28;20181;-40
2021/04/23 07:51:48;;;;;;;1999.90;999.90;;;15.80;97.50;;;;;;5030308;28;20184;-50
2021/04/23 07:54:15;;;;;;;1999.90;999.90;;;15.60;97.60;;;;;;5030716;28;20185;-41
2021/04/23 07:56:42;;;;;;;1999.90;999.90;;;15.40;98.50;;;;;;5030418;28;20212;-40
2021/04/23 07:59:09;;;;;;;1999.90;999.90;;;15.60;98.40;;;;;;5030197;28;20205;-40
2021/04/23 08:01:36;;;;;;;1999.90;999.90;;;15.70;98.10;;;;;;5029977;28;20206;-39
2021/04/23 08:04:03;;;;;;;1999.90;999.90;;;15.90;97.50;;;;;;5029877;28;20664;-41
2021/04/23 08:06:30;;;;;;;1999.90;999.90;;;16.30;99.70;;;;;;5029862;28;20629;-41
2021/04/23 08:08:57;;;;;;;1999.90;999.90;;;16.80;96.90;;;;;;5029948;28;20189;-43
2021/04/23 08:11:24;;;;;;;1999.90;999.90;;;16.90;95.90;;;;;;5029970;28;20201;-47
2021/04/23 08:13:51;;;;;;;1999.90;999.90;;;16.90;94.90;;;;;;5029691;28;20170;-45
2021/04/23 08:16:18;;;;;;;1999.90;999.90;;;16.90;95.00;;;;;;5029878;28;20173;-44
2021/04/23 08:18:45;;;;;;;1999.90;999.90;;;16.70;94.60;;;;;;5029849;28;20166;-44
2021/04/23 08:21:12;;;;;;;1999.90;999.90;;;16.40;95.30;;;;;;5029254;28;20222;-40
2021/04/23 08:23:39;;;;;;;1999.90;999.90;;;16.40;95.50;;;;;;5029396;28;20221;-51
2021/04/23 08:26:06;;;;;;;1999.90;999.90;;;16.30;96.10;;;;;;5029731;28;20166;-43
2021/04/23 08:28:33;;;;;;;1999.90;999.90;;;16.10;96.30;;;;;;5030400;28;20595;-45
2021/04/23 08:31:01;;;;;;;1999.90;999.90;;;16.60;95.40;;;;;;5029515;28;20253;-46
2021/04/23 08:33:27;;;;;;;1999.90;999.90;;;16.60;95.60;;;;;;5029209;28;20189;-40
2021/04/23 08:35:54;;;;;;;1999.90;999.90;;;16.80;94.80;;;;;;5029545;28;20189;-42
2021/04/23 08:38:24;;;;;;;1999.90;999.90;;;16.90;94.80;;;;;;5029422;28;20236;-48
2021/04/23 08:40:57;;;;;;;1999.90;999.90;;;17.30;94.10;;;;;;5029548;28;20182;-40
2021/04/23 08:43:24;;;;;;;1999.90;999.90;;;17.30;93.40;;;;;;5029398;28;20190;-40
2021/04/23 08:45:52;;;;;;;1999.90;999.90;;;17.00;93.80;;;;;;5029440;28;20203;-40
2021/04/23 08:48:23;;;;;;;1999.90;999.90;;;17.00;94.00;;;;;;5029633;28;20177;-41
2021/04/23 08:50:50;;;;;;;1999.90;999.90;;;16.90;94.10;;;;;;5029307;28;20162;-40
2021/04/23 08:53:18;;;;;;;1999.90;999.90;;;16.70;94.40;;;;;;5029558;28;20201;-39
2021/04/23 08:55:45;;;;;;;1999.90;999.90;;;16.90;94.40;;;;;;5027927;28;20174;-39
2021/04/23 08:58:13;;;;;;;1999.90;999.90;;;16.80;94.20;;;;;;5029044;28;20169;-38
2021/04/23 09:00:41;;;;;;;1999.90;999.90;;;17.00;94.10;;;;;;5028162;28;20632;-41
2021/04/23 09:03:14;;;;;;;1999.90;999.90;;;17.00;93.70;;;;;;5027150;28;20219;-41
2021/04/23 09:05:41;;;;;;;1999.90;999.90;;;17.10;93.70;;;;;;5027714;28;20265;-43
2021/04/23 09:08:14;;;;;;;1999.90;999.90;;;16.90;93.60;;;;;;5028396;28;20225;-46
2021/04/23 09:10:43;;;;;;;1999.90;999.90;;;17.10;93.40;;;;;;5028659;28;20196;-50
2021/04/23 09:13:09;;;;;;;1999.90;999.90;;;17.50;93.00;;;;;;5028552;28;20794;-42
2021/04/23 09:15:38;;;;;;;1999.90;999.90;;;17.50;92.40;;;;;;5028517;28;20231;-48
2021/04/23 09:18:17;;;;;;;1999.90;999.90;;;17.90;91.80;;;;;;5028254;28;20206;-49
2021/04/23 09:20:47;;;;;;;1999.90;999.90;;;18.50;90.30;;;;;;5028109;28;20262;-50
2021/04/23 09:23:22;;;;;;;1999.90;999.90;;;18.40;90.10;;;;;;5028109;28;20174;-40
2021/04/23 09:25:57;;;;;;;1999.90;999.90;;;18.70;88.90;;;;;;5027759;28;20162;-46
2021/04/23 09:28:42;;;;;;;1999.90;999.90;;;19.20;88.40;;;;;;5027809;28;20225;-49
2021/04/23 09:31:26;;;;;;;1999.90;999.90;;;19.70;84.30;;;;;;5028634;28;20170;-45
2021/04/23 09:33:58;;;;;;;1999.90;999.90;;;19.30;85.20;;;;;;5027802;28;20200;-49
2021/04/23 09:36:27;;;;;;;1999.90;999.90;;;19.20;85.60;;;;;;5028278;28;20230;-41
2021/04/23 09:39:25;;;;;;;1999.90;999.90;;;18.90;86.80;;;;;;5028715;28;20170;-42
2021/04/23 09:41:55;;;;;;;1999.90;999.90;;;19.30;85.70;;;;;;5028478;28;20202;-41
2021/04/23 09:44:27;;;;;;;1999.90;999.90;;;19.70;82.50;;;;;;5028528;28;20213;-40
2021/04/23 09:47:05;;;;;;;1999.90;999.90;;;19.40;84.50;;;;;;5052336;28;20162;-40
2021/04/23 09:49:32;;;;;;;1999.90;999.90;;;19.60;83.70;;;;;;5074196;28;20163;-53
2021/04/23 09:52:06;;;;;;;1999.90;999.90;;;19.20;84.70;;;;;;5082844;27;20209;-39
2021/04/23 09:54:35;;;;;;;1999.90;999.90;;;19.50;83.00;;;;;;5012706;28;20557;-45
2021/04/23 09:57:16;;;;;;;1999.90;999.90;;;19.80;83.20;;;;;;5028287;28;20253;-45
2021/04/23 10:00:01;;;;;;;1999.90;999.90;;;20.30;80.30;;;;;;5028189;28;20173;-47
2021/04/23 10:02:30;;;;;;;1999.90;999.90;;;20.30;80.00;;;;;;5027380;28;20170;-47
2021/04/23 10:04:58;;;;;;;1999.90;999.90;;;20.00;80.90;;;;;;5008369;28;20210;-45
2021/04/23 10:07:26;;;;;;;1999.90;999.90;;;20.40;79.60;;;;;;5008654;28;20198;-46
2021/04/23 10:10:02;;;;;;;1999.90;999.90;;;20.90;78.10;;;;;;5008701;28;20213;-39
2021/04/23 10:12:32;;;;;;;1999.90;999.90;;;21.10;76.90;;;;;;5012006;28;20166;-42
2021/04/23 10:15:06;;;;;;;1999.90;999.90;;;21.80;74.40;;;;;;5018145;28;20158;-45
2021/04/23 10:17:34;;;;;;;1999.90;999.90;;;21.60;74.50;;;;;;5029014;28;20255;-44
2021/04/23 10:20:02;;;;;;;1999.90;999.90;;;21.20;74.70;;;;;;5030502;28;20533;-43
2021/04/23 10:22:28;;;;;;;1999.90;999.90;;;21.10;75.70;;;;;;5030598;28;20197;-60
2021/04/23 10:24:56;;;;;;;1999.90;999.90;;;21.60;74.40;;;;;;5030970;28;20206;-55
2021/04/23 10:27:23;;;;;;;1999.90;999.90;;;21.80;72.90;;;;;;5031058;28;20170;-52
2021/04/23 10:29:53;;;;;;;1999.90;999.90;;;22.20;71.60;;;;;;5030630;28;20177;-49
2021/04/23 10:32:21;;;;;;;1999.90;999.90;;;22.50;70.40;;;;;;5031026;28;20657;-52
2021/04/23 10:34:52;;;;;;;1999.90;999.90;;;22.90;68.40;;;;;;5030901;28;20207;-59
2021/04/23 10:37:19;;;;;;;1999.90;999.90;;;23.30;66.60;;;;;;5030461;28;20158;-46
2021/04/23 10:39:49;;;;;;;1999.90;999.90;;;23.50;64.90;;;;;;5030950;28;20170;-55
2021/04/23 10:42:41;;;;;;;1999.90;999.90;;;23.30;65.90;;;;;;5031025;28;20522;-53
2021/04/23 10:45:41;;;;;;;1999.90;999.90;;;23.30;65.20;;;;;;5030361;28;20210;-57
2021/04/23 10:48:13;;;;;;;1999.90;999.90;;;23.60;64.30;;;;;;5064484;27;20163;-55
2021/04/23 10:50:46;;;;;;;1999.90;999.90;;;24.00;62.20;;;;;;5035399;28;20531;-49
2021/04/23 10:53:12;;;;;;;1999.90;999.90;;;24.10;60.90;;;;;;5030400;28;20177;-55
2021/04/23 10:55:56;;;;;;;1999.90;999.90;;;24.20;59.90;;;;;;5030887;28;20178;-55
2021/04/23 10:58:28;;;;;;;1999.90;999.90;;;24.50;59.30;;;;;;5029989;28;20162;-50
2021/04/23 11:01:23;;;;;;;1999.90;999.90;;;24.80;58.50;;;;;;5030590;28;20859;-54
2021/04/23 11:04:10;;;;;;;1999.90;999.90;;;25.10;57.20;;;;;;5030966;28;20194;-58
2021/04/23 11:06:45;;;;;;;1999.90;999.90;;;25.10;56.80;;;;;;5030144;28;20158;-39
2021/04/23 11:09:20;;;;;;;1999.90;999.90;;;24.30;56.80;;;;;;5030189;28;20193;-43
2021/04/23 11:12:17;;;;;;;1999.90;999.90;;;24.40;57.80;;;;;;5030453;28;20583;-48
2021/04/23 11:14:46;;;;;;;1999.90;999.90;;;24.20;56.30;;;;;;5034572;28;20238;-47
2021/04/23 11:17:19;;;;;;;1999.90;999.90;;;24.20;56.80;;;;;;5031050;28;20257;-53
2021/04/23 11:19:47;;;;;;;1999.90;999.90;;;24.80;55.30;;;;;;5030587;28;20352;-43
2021/04/23 11:22:22;;;;;;;1999.90;999.90;;;25.30;53.60;;;;;;5030579;28;20217;-51
2021/04/23 11:25:11;;;;;;;1999.90;999.90;;;25.60;52.70;;;;;;5030780;28;20234;-51
2021/04/23 11:28:07;;;;;;;1999.90;999.90;;;25.70;52.90;;;;;;5031075;28;20520;-56
2021/04/23 11:31:00;;;;;;;1999.90;999.90;;;25.80;52.60;;;;;;5032205;28;20262;-49
2021/04/23 11:33:53;;;;;;;1999.90;999.90;;;25.70;52.40;;;;;;5030114;28;20190;-51
2021/04/23 11:36:36;;;;;;;1999.90;999.90;;;25.90;52.00;;;;;;5011205;28;20154;-49
2021/04/23 11:39:07;;;;;;;1999.90;999.90;;;26.20;51.90;;;;;;5044183;27;20162;-52
2021/04/23 11:41:34;;;;;;;1999.90;999.90;;;26.40;50.70;;;;;;5014410;28;20581;-53
2021/04/23 11:44:01;;;;;;;1999.90;999.90;;;26.40;49.60;;;;;;5036637;28;20213;-51
2021/04/23 11:46:50;;;;;;;1999.90;999.90;;;26.40;49.60;;;;;;5030117;28;20252;-53
2021/04/23 11:49:17;;;;;;;1999.90;999.90;;;26.60;49.50;;;;;;5030782;28;20186;-49
2021/04/23 11:51:53;;;;;;;1999.90;999.90;;;26.80;48.00;;;;;;5030160;28;20635;-47
2021/04/23 11:54:33;;;;;;;1999.90;999.90;;;26.90;47.80;;;;;;5027047;28;20162;-45
2021/04/23 11:57:02;;;;;;;1999.90;999.90;;;26.90;47.40;;;;;;5033446;28;20171;-44
2021/04/23 11:59:29;;;;;;;1999.90;999.90;;;26.80;47.60;;;;;;5058769;28;20170;-45
2021/04/23 12:01:56;;;;;;;1999.90;999.90;;;26.90;47.30;;;;;;5030388;28;20174;-53
2021/04/23 12:04:43;;;;;;;1999.90;999.90;;;26.60;47.00;;;;;;5040470;27;20251;-47
2021/04/23 12:07:11;;;;;;;1999.90;999.90;;;26.60;47.40;;;;;;5030002;28;20214;-41
2021/04/23 12:09:38;;;;;;;1999.90;999.90;;;26.60;47.10;;;;;;5030245;28;20637;-40
2021/04/23 12:12:12;;;;;;;1999.90;999.90;;;26.50;47.60;;;;;;5030151;28;20174;-41